This is the latest recevied weather packets stored in our database for station/object W0BJ-1. If no packets are shown the sender has not sent any weather packets the latest 10 day(s).
| Time | Temp. | Humidity | Pressure | Rain* | Wind** | Luminosity | Snow |
|---|---|---|---|---|---|---|---|
| 1777415465 | 14.44° C | 85% | 1013.8 hPa | 0 mm | - | 158 W/m² | - |
| 1777413340 | 14.44° C | 79% | 1014.9 hPa | 0 mm | - | 21 W/m² | - |
| 1777413041 | 14.44° C | 78% | 1014.7 hPa | 0 mm | - | 30 W/m² | - |
| 1777411541 | 15° C | 77% | 1014.9 hPa | 0 mm | - | 67 W/m² | - |
| 1777411240 | 15° C | 76% | 1014.9 hPa | 0 mm | - | 76 W/m² | - |
| 1777409441 | 15.56° C | 71% | 1016.2 hPa | 0 mm | - | 97 W/m² | - |
| 1777409154 | 16.11° C | 71% | 1015.9 hPa | 0 mm | - | 137 W/m² | - |
| 1777407940 | 15.56° C | 72% | 1015.8 hPa | 0 mm | - | 269 W/m² | - |
| 1777407040 | 15.56° C | 75% | 1015.6 hPa | 0 mm | - | 417 W/m² | - |
| 1777406739 | 15° C | 75% | 1015.2 hPa | 0 mm | - | 357 W/m² | - |
| 1777406140 | 15° C | 75% | 1015.1 hPa | 0 mm | - | 234 W/m² | - |
| 1777405839 | 15° C | 75% | 1014.7 hPa | 0 mm | - | 190 W/m² | - |
| 1777403756 | 15° C | 73% | 1016.2 hPa | 0 mm | - | 257 W/m² | - |
| 1777402540 | 15° C | 72% | 1017.2 hPa | 0 mm | - | 345 W/m² | - |
| 1777400440 | 15.56° C | 73% | 1016 hPa | 0 mm | - | 492 W/m² | - |
| 1777398943 | 16.11° C | 71% | 1015.9 hPa | 0 mm | - | 1136 W/m² | - |
| 1777398041 | 16.67° C | 70% | 1016.5 hPa | 0 mm | - | 1018 W/m² | - |
| 1777396842 | 16.11° C | 68% | 1017.2 hPa | 0 mm | - | 974 W/m² | - |
| 1777391739 | 13.89° C | 74% | 1018.3 hPa | 0 mm | - | 534 W/m² | - |
| 1777391440 | 13.89° C | 76% | 1018.3 hPa | 0 mm | - | 552 W/m² | - |
| 1777391152 | 13.33° C | 75% | 1018.5 hPa | 0 mm | - | 459 W/m² | - |
| 1777389639 | 13.33° C | 75% | 1018.9 hPa | 0 mm | - | 399 W/m² | - |
| 1777388451 | 12.78° C | 77% | 1018.5 hPa | 0 mm | - | 236 W/m² | - |
| 1777386649 | 12.78° C | 77% | 1018.1 hPa | 0 mm | - | 192 W/m² | - |
| 1777383640 | 11.67° C | 81% | 1016.4 hPa | 0 mm | - | 267 W/m² | - |
* Rain latest hour (hover to see other rain measurements)
** Current wind speed in m/s (hover to see current wind gust speed)